sensor_id;sensor_type;location;lat;lon;timestamp;P1;durP1;ratioP1;P2;durP2;ratioP2
29576;SDS011;16509;53.862;10.672;2022-09-20T00:01:06;0.82;;;0.82;;
29576;SDS011;16509;53.862;10.672;2022-09-20T00:03:35;0.85;;;0.82;;
29576;SDS011;16509;53.862;10.672;2022-09-20T00:06:02;1.02;;;1.00;;
29576;SDS011;16509;53.862;10.672;2022-09-20T00:08:29;7.35;;;1.20;;
29576;SDS011;16509;53.862;10.672;2022-09-20T00:13:31;2.20;;;1.08;;
29576;SDS011;16509;53.862;10.672;2022-09-20T00:15:58;4.13;;;1.13;;
29576;SDS011;16509;53.862;10.672;2022-09-20T00:18:24;1.10;;;1.00;;
29576;SDS011;16509;53.862;10.672;2022-09-20T00:20:51;1.48;;;1.00;;
29576;SDS011;16509;53.862;10.672;2022-09-20T00:23:17;1.15;;;0.88;;
29576;SDS011;16509;53.862;10.672;2022-09-20T00:25:43;0.95;;;0.93;;
29576;SDS011;16509;53.862;10.672;2022-09-20T00:28:10;1.60;;;1.00;;
29576;SDS011;16509;53.862;10.672;2022-09-20T00:30:36;1.42;;;0.80;;
29576;SDS011;16509;53.862;10.672;2022-09-20T00:33:03;2.55;;;0.93;;
29576;SDS011;16509;53.862;10.672;2022-09-20T00:35:29;1.40;;;1.23;;
29576;SDS011;16509;53.862;10.672;2022-09-20T00:37:55;2.20;;;0.80;;
29576;SDS011;16509;53.862;10.672;2022-09-20T00:40:21;4.07;;;0.90;;
29576;SDS011;16509;53.862;10.672;2022-09-20T00:42:48;2.15;;;1.00;;
29576;SDS011;16509;53.862;10.672;2022-09-20T00:45:18;4.10;;;0.95;;
29576;SDS011;16509;53.862;10.672;2022-09-20T00:50:32;6.78;;;0.93;;
29576;SDS011;16509;53.862;10.672;2022-09-20T00:53:20;1.58;;;0.90;;
29576;SDS011;16509;53.862;10.672;2022-09-20T00:55:53;3.72;;;1.00;;
29576;SDS011;16509;53.862;10.672;2022-09-20T00:58:22;1.90;;;1.00;;
29576;SDS011;16509;53.862;10.672;2022-09-20T01:00:50;1.88;;;1.13;;
29576;SDS011;16509;53.862;10.672;2022-09-20T01:03:20;2.60;;;0.90;;
29576;SDS011;16509;53.862;10.672;2022-09-20T01:05:49;2.22;;;1.15;;
29576;SDS011;16509;53.862;10.672;2022-09-20T01:08:16;1.10;;;0.90;;
29576;SDS011;16509;53.862;10.672;2022-09-20T01:10:42;4.13;;;0.90;;
29576;SDS011;16509;53.862;10.672;2022-09-20T01:13:11;1.60;;;0.90;;
29576;SDS011;16509;53.862;10.672;2022-09-20T01:15:37;2.22;;;1.05;;
29576;SDS011;16509;53.862;10.672;2022-09-20T01:18:06;2.05;;;0.90;;
29576;SDS011;16509;53.862;10.672;2022-09-20T01:20:37;2.10;;;0.82;;
29576;SDS011;16509;53.862;10.672;2022-09-20T01:28:44;3.90;;;1.23;;
29576;SDS011;16509;53.862;10.672;2022-09-20T01:31:25;2.33;;;0.98;;
29576;SDS011;16509;53.862;10.672;2022-09-20T01:36:30;1.15;;;1.05;;
29576;SDS011;16509;53.862;10.672;2022-09-20T01:41:35;1.50;;;1.00;;
29576;SDS011;16509;53.862;10.672;2022-09-20T02:07:28;1.10;;;1.00;;
29576;SDS011;16509;53.862;10.672;2022-09-20T02:24:28;1.10;;;1.00;;
29576;SDS011;16509;53.862;10.672;2022-09-20T02:27:22;4.82;;;1.30;;
29576;SDS011;16509;53.862;10.672;2022-09-20T02:41:04;3.92;;;1.38;;
29576;SDS011;16509;53.862;10.672;2022-09-20T02:43:52;3.90;;;1.40;;
29576;SDS011;16509;53.862;10.672;2022-09-20T02:46:23;4.28;;;1.48;;
29576;SDS011;16509;53.862;10.672;2022-09-20T02:49:04;2.08;;;1.40;;
29576;SDS011;16509;53.862;10.672;2022-09-20T02:57:15;3.90;;;1.10;;
29576;SDS011;16509;53.862;10.672;2022-09-20T03:00:22;2.75;;;1.50;;
29576;SDS011;16509;53.862;10.672;2022-09-20T03:03:04;4.10;;;1.30;;
29576;SDS011;16509;53.862;10.672;2022-09-20T03:08:32;1.65;;;1.17;;
29576;SDS011;16509;53.862;10.672;2022-09-20T03:11:15;2.60;;;1.40;;
29576;SDS011;16509;53.862;10.672;2022-09-20T03:17:03;1.27;;;1.13;;
29576;SDS011;16509;53.862;10.672;2022-09-20T03:19:47;2.33;;;1.30;;
29576;SDS011;16509;53.862;10.672;2022-09-20T03:30:48;5.70;;;1.42;;
29576;SDS011;16509;53.862;10.672;2022-09-20T03:33:25;1.52;;;1.42;;
29576;SDS011;16509;53.862;10.672;2022-09-20T03:36:18;2.78;;;1.55;;
29576;SDS011;16509;53.862;10.672;2022-09-20T03:39:24;2.67;;;1.48;;
29576;SDS011;16509;53.862;10.672;2022-09-20T03:51:07;3.92;;;1.63;;
29576;SDS011;16509;53.862;10.672;2022-09-20T04:11:22;3.03;;;1.55;;
29576;SDS011;16509;53.862;10.672;2022-09-20T04:14:08;3.47;;;1.52;;
29576;SDS011;16509;53.862;10.672;2022-09-20T04:22:56;2.55;;;1.75;;
29576;SDS011;16509;53.862;10.672;2022-09-20T04:25:32;2.75;;;1.73;;
29576;SDS011;16509;53.862;10.672;2022-09-20T04:31:06;3.00;;;1.90;;
29576;SDS011;16509;53.862;10.672;2022-09-20T04:33:41;5.68;;;1.90;;
29576;SDS011;16509;53.862;10.672;2022-09-20T04:42:14;1.70;;;1.60;;
29576;SDS011;16509;53.862;10.672;2022-09-20T04:47:37;4.35;;;2.20;;
29576;SDS011;16509;53.862;10.672;2022-09-20T04:55:53;3.63;;;2.20;;
29576;SDS011;16509;53.862;10.672;2022-09-20T04:58:42;6.72;;;2.50;;
29576;SDS011;16509;53.862;10.672;2022-09-20T05:14:36;10.52;;;5.55;;
29576;SDS011;16509;53.862;10.672;2022-09-20T05:26:18;8.77;;;4.20;;
29576;SDS011;16509;53.862;10.672;2022-09-20T05:34:28;12.15;;;4.57;;
29576;SDS011;16509;53.862;10.672;2022-09-20T05:40:14;9.40;;;4.30;;
29576;SDS011;16509;53.862;10.672;2022-09-20T05:48:17;6.47;;;4.15;;
29576;SDS011;16509;53.862;10.672;2022-09-20T05:51:00;11.98;;;4.88;;
29576;SDS011;16509;53.862;10.672;2022-09-20T05:59:20;10.15;;;5.32;;
29576;SDS011;16509;53.862;10.672;2022-09-20T06:04:58;17.05;;;6.72;;
29576;SDS011;16509;53.862;10.672;2022-09-20T06:07:59;15.40;;;6.25;;
29576;SDS011;16509;53.862;10.672;2022-09-20T06:16:24;10.32;;;4.10;;
29576;SDS011;16509;53.862;10.672;2022-09-20T06:19:16;9.57;;;3.90;;
29576;SDS011;16509;53.862;10.672;2022-09-20T06:21:53;10.60;;;4.38;;
29576;SDS011;16509;53.862;10.672;2022-09-20T06:24:25;14.07;;;4.15;;
29576;SDS011;16509;53.862;10.672;2022-09-20T06:27:03;5.35;;;3.05;;
29576;SDS011;16509;53.862;10.672;2022-09-20T06:29:35;7.78;;;3.25;;
29576;SDS011;16509;53.862;10.672;2022-09-20T06:32:04;7.25;;;2.92;;
29576;SDS011;16509;53.862;10.672;2022-09-20T06:34:31;6.63;;;2.78;;
29576;SDS011;16509;53.862;10.672;2022-09-20T06:37:09;8.40;;;3.17;;
29576;SDS011;16509;53.862;10.672;2022-09-20T06:42:51;10.40;;;2.80;;
29576;SDS011;16509;53.862;10.672;2022-09-20T06:45:18;5.05;;;2.67;;
29576;SDS011;16509;53.862;10.672;2022-09-20T06:47:44;5.30;;;2.55;;
29576;SDS011;16509;53.862;10.672;2022-09-20T06:50:16;10.10;;;2.47;;
29576;SDS011;16509;53.862;10.672;2022-09-20T06:52:42;9.45;;;2.45;;
29576;SDS011;16509;53.862;10.672;2022-09-20T06:55:14;4.00;;;2.50;;
29576;SDS011;16509;53.862;10.672;2022-09-20T06:57:45;5.45;;;1.83;;
29576;SDS011;16509;53.862;10.672;2022-09-20T07:00:12;4.95;;;1.73;;
29576;SDS011;16509;53.862;10.672;2022-09-20T07:02:39;6.53;;;1.90;;
29576;SDS011;16509;53.862;10.672;2022-09-20T07:05:15;8.77;;;2.13;;
29576;SDS011;16509;53.862;10.672;2022-09-20T07:10:08;5.35;;;1.60;;
29576;SDS011;16509;53.862;10.672;2022-09-20T07:12:35;6.50;;;1.80;;
29576;SDS011;16509;53.862;10.672;2022-09-20T07:15:00;4.75;;;1.50;;
29576;SDS011;16509;53.862;10.672;2022-09-20T07:17:26;3.38;;;1.50;;
29576;SDS011;16509;53.862;10.672;2022-09-20T07:19:51;6.80;;;1.60;;
29576;SDS011;16509;53.862;10.672;2022-09-20T07:22:17;4.63;;;1.48;;
29576;SDS011;16509;53.862;10.672;2022-09-20T07:24:42;6.65;;;1.70;;
29576;SDS011;16509;53.862;10.672;2022-09-20T07:27:09;5.15;;;1.67;;
29576;SDS011;16509;53.862;10.672;2022-09-20T07:29:35;7.25;;;1.40;;
29576;SDS011;16509;53.862;10.672;2022-09-20T07:32:01;6.85;;;1.90;;
29576;SDS011;16509;53.862;10.672;2022-09-20T07:34:27;8.18;;;1.63;;
29576;SDS011;16509;53.862;10.672;2022-09-20T07:36:53;9.20;;;1.80;;
29576;SDS011;16509;53.862;10.672;2022-09-20T07:39:21;8.82;;;1.67;;
29576;SDS011;16509;53.862;10.672;2022-09-20T07:41:46;2.38;;;1.13;;
29576;SDS011;16509;53.862;10.672;2022-09-20T07:44:14;3.67;;;1.40;;
29576;SDS011;16509;53.862;10.672;2022-09-20T07:46:52;5.00;;;1.38;;
29576;SDS011;16509;53.862;10.672;2022-09-20T07:49:20;9.55;;;1.63;;
29576;SDS011;16509;53.862;10.672;2022-09-20T07:51:46;12.75;;;1.67;;
29576;SDS011;16509;53.862;10.672;2022-09-20T07:54:13;7.22;;;1.27;;
29576;SDS011;16509;53.862;10.672;2022-09-20T07:56:39;3.58;;;1.17;;
29576;SDS011;16509;53.862;10.672;2022-09-20T07:59:04;5.40;;;1.38;;
29576;SDS011;16509;53.862;10.672;2022-09-20T08:01:30;8.88;;;1.75;;
29576;SDS011;16509;53.862;10.672;2022-09-20T08:03:56;9.57;;;1.35;;
29576;SDS011;16509;53.862;10.672;2022-09-20T08:06:21;5.20;;;1.50;;
29576;SDS011;16509;53.862;10.672;2022-09-20T08:08:47;10.65;;;1.52;;
29576;SDS011;16509;53.862;10.672;2022-09-20T08:11:16;11.40;;;1.33;;
29576;SDS011;16509;53.862;10.672;2022-09-20T08:13:44;8.07;;;1.17;;
29576;SDS011;16509;53.862;10.672;2022-09-20T08:16:15;8.13;;;1.23;;
29576;SDS011;16509;53.862;10.672;2022-09-20T08:18:45;7.95;;;1.40;;
29576;SDS011;16509;53.862;10.672;2022-09-20T08:21:11;7.57;;;1.40;;
29576;SDS011;16509;53.862;10.672;2022-09-20T08:26:18;8.85;;;1.60;;
29576;SDS011;16509;53.862;10.672;2022-09-20T08:28:46;7.88;;;1.42;;
29576;SDS011;16509;53.862;10.672;2022-09-20T08:31:16;2.88;;;1.23;;
29576;SDS011;16509;53.862;10.672;2022-09-20T08:33:43;8.65;;;1.58;;
29576;SDS011;16509;53.862;10.672;2022-09-20T08:36:17;10.00;;;1.33;;
29576;SDS011;16509;53.862;10.672;2022-09-20T08:38:44;6.20;;;1.23;;
29576;SDS011;16509;53.862;10.672;2022-09-20T08:41:12;11.45;;;1.25;;
29576;SDS011;16509;53.862;10.672;2022-09-20T08:43:45;3.10;;;1.00;;
29576;SDS011;16509;53.862;10.672;2022-09-20T08:46:16;8.63;;;1.05;;
29576;SDS011;16509;53.862;10.672;2022-09-20T08:48:44;3.92;;;1.20;;
29576;SDS011;16509;53.862;10.672;2022-09-20T08:51:11;4.75;;;1.17;;
29576;SDS011;16509;53.862;10.672;2022-09-20T08:53:45;9.02;;;1.17;;
29576;SDS011;16509;53.862;10.672;2022-09-20T08:56:14;8.35;;;1.35;;
29576;SDS011;16509;53.862;10.672;2022-09-20T08:58:40;6.25;;;1.05;;
29576;SDS011;16509;53.862;10.672;2022-09-20T09:01:06;4.95;;;1.00;;
29576;SDS011;16509;53.862;10.672;2022-09-20T09:03:34;6.38;;;1.02;;
29576;SDS011;16509;53.862;10.672;2022-09-20T09:06:00;12.82;;;1.25;;
29576;SDS011;16509;53.862;10.672;2022-09-20T09:08:27;13.30;;;2.10;;
29576;SDS011;16509;53.862;10.672;2022-09-20T09:11:02;4.93;;;1.20;;
29576;SDS011;16509;53.862;10.672;2022-09-20T09:16:13;9.85;;;1.80;;
29576;SDS011;16509;53.862;10.672;2022-09-20T09:21:16;5.68;;;1.50;;
29576;SDS011;16509;53.862;10.672;2022-09-20T09:24:01;6.88;;;0.90;;
29576;SDS011;16509;53.862;10.672;2022-09-20T09:26:36;14.85;;;1.30;;
29576;SDS011;16509;53.862;10.672;2022-09-20T09:29:14;7.97;;;0.90;;
29576;SDS011;16509;53.862;10.672;2022-09-20T09:31:45;6.57;;;1.23;;
29576;SDS011;16509;53.862;10.672;2022-09-20T09:34:26;4.80;;;1.13;;
29576;SDS011;16509;53.862;10.672;2022-09-20T09:36:53;5.82;;;0.85;;
29576;SDS011;16509;53.862;10.672;2022-09-20T09:39:30;6.18;;;1.40;;
29576;SDS011;16509;53.862;10.672;2022-09-20T09:41:57;9.15;;;1.33;;
29576;SDS011;16509;53.862;10.672;2022-09-20T09:44:30;12.93;;;1.08;;
29576;SDS011;16509;53.862;10.672;2022-09-20T09:46:59;5.50;;;0.77;;
29576;SDS011;16509;53.862;10.672;2022-09-20T09:49:26;7.53;;;1.35;;
29576;SDS011;16509;53.862;10.672;2022-09-20T09:54:27;4.55;;;1.67;;
29576;SDS011;16509;53.862;10.672;2022-09-20T10:00:17;6.72;;;1.17;;
29576;SDS011;16509;53.862;10.672;2022-09-20T10:13:16;5.90;;;0.90;;
29576;SDS011;16509;53.862;10.672;2022-09-20T10:21:17;8.10;;;1.00;;
29576;SDS011;16509;53.862;10.672;2022-09-20T10:24:11;10.13;;;1.15;;
29576;SDS011;16509;53.862;10.672;2022-09-20T10:38:12;10.13;;;1.35;;
29576;SDS011;16509;53.862;10.672;2022-09-20T10:40:50;4.93;;;1.02;;
29576;SDS011;16509;53.862;10.672;2022-09-20T11:06:22;5.28;;;1.30;;
29576;SDS011;16509;53.862;10.672;2022-09-20T11:08:51;2.10;;;0.80;;
29576;SDS011;16509;53.862;10.672;2022-09-20T11:11:22;6.65;;;0.95;;
29576;SDS011;16509;53.862;10.672;2022-09-20T11:13:55;4.63;;;0.82;;
29576;SDS011;16509;53.862;10.672;2022-09-20T11:19:31;6.82;;;0.82;;
29576;SDS011;16509;53.862;10.672;2022-09-20T11:22:19;8.15;;;1.08;;
29576;SDS011;16509;53.862;10.672;2022-09-20T11:25:10;5.90;;;1.27;;
29576;SDS011;16509;53.862;10.672;2022-09-20T11:30:29;4.50;;;0.98;;
29576;SDS011;16509;53.862;10.672;2022-09-20T11:35:49;6.05;;;1.00;;
29576;SDS011;16509;53.862;10.672;2022-09-20T11:38:21;4.73;;;1.10;;
29576;SDS011;16509;53.862;10.672;2022-09-20T11:41:01;3.53;;;0.85;;
29576;SDS011;16509;53.862;10.672;2022-09-20T11:43:32;3.45;;;0.90;;
29576;SDS011;16509;53.862;10.672;2022-09-20T11:46:03;10.23;;;1.20;;
29576;SDS011;16509;53.862;10.672;2022-09-20T11:51:18;4.18;;;0.63;;
29576;SDS011;16509;53.862;10.672;2022-09-20T11:54:11;7.40;;;1.00;;
29576;SDS011;16509;53.862;10.672;2022-09-20T11:57:01;5.18;;;0.98;;
29576;SDS011;16509;53.862;10.672;2022-09-20T11:59:41;2.45;;;0.75;;
29576;SDS011;16509;53.862;10.672;2022-09-20T12:02:22;5.78;;;0.80;;
29576;SDS011;16509;53.862;10.672;2022-09-20T12:04:59;3.42;;;1.17;;
29576;SDS011;16509;53.862;10.672;2022-09-20T12:07:36;4.72;;;0.70;;
29576;SDS011;16509;53.862;10.672;2022-09-20T12:10:51;2.88;;;0.65;;
29576;SDS011;16509;53.862;10.672;2022-09-20T12:12:59;5.88;;;0.88;;
29576;SDS011;16509;53.862;10.672;2022-09-20T12:15:28;8.95;;;1.10;;
29576;SDS011;16509;53.862;10.672;2022-09-20T12:18:07;8.25;;;1.13;;
29576;SDS011;16509;53.862;10.672;2022-09-20T12:28:43;3.95;;;0.80;;
29576;SDS011;16509;53.862;10.672;2022-09-20T12:33:59;3.63;;;0.90;;
29576;SDS011;16509;53.862;10.672;2022-09-20T12:36:29;7.00;;;0.95;;
29576;SDS011;16509;53.862;10.672;2022-09-20T12:39:22;4.07;;;0.90;;
29576;SDS011;16509;53.862;10.672;2022-09-20T12:46:59;2.70;;;0.88;;
29576;SDS011;16509;53.862;10.672;2022-09-20T12:58:18;4.03;;;0.88;;
29576;SDS011;16509;53.862;10.672;2022-09-20T13:03:40;3.00;;;0.73;;
29576;SDS011;16509;53.862;10.672;2022-09-20T13:11:14;3.42;;;0.68;;
29576;SDS011;16509;53.862;10.672;2022-09-20T13:19:03;2.55;;;0.80;;
29576;SDS011;16509;53.862;10.672;2022-09-20T13:21:47;3.80;;;0.75;;
29576;SDS011;16509;53.862;10.672;2022-09-20T13:24:20;5.13;;;1.20;;
29576;SDS011;16509;53.862;10.672;2022-09-20T13:26:49;6.18;;;1.00;;
29576;SDS011;16509;53.862;10.672;2022-09-20T13:29:29;1.48;;;0.70;;
29576;SDS011;16509;53.862;10.672;2022-09-20T13:45:56;3.38;;;0.80;;
29576;SDS011;16509;53.862;10.672;2022-09-20T13:48:26;2.72;;;0.70;;
29576;SDS011;16509;53.862;10.672;2022-09-20T13:50:53;1.20;;;0.70;;
29576;SDS011;16509;53.862;10.672;2022-09-20T13:53:21;3.72;;;0.70;;
29576;SDS011;16509;53.862;10.672;2022-09-20T13:55:49;6.40;;;1.02;;
29576;SDS011;16509;53.862;10.672;2022-09-20T13:58:31;5.90;;;1.10;;
29576;SDS011;16509;53.862;10.672;2022-09-20T14:03:29;1.30;;;0.68;;
29576;SDS011;16509;53.862;10.672;2022-09-20T14:05:59;1.08;;;0.57;;
29576;SDS011;16509;53.862;10.672;2022-09-20T14:08:31;1.42;;;0.52;;
29576;SDS011;16509;53.862;10.672;2022-09-20T14:11:24;3.63;;;0.75;;
29576;SDS011;16509;53.862;10.672;2022-09-20T14:13:54;5.53;;;0.93;;
29576;SDS011;16509;53.862;10.672;2022-09-20T14:16:32;3.33;;;0.57;;
29576;SDS011;16509;53.862;10.672;2022-09-20T14:19:02;4.38;;;1.17;;
29576;SDS011;16509;53.862;10.672;2022-09-20T14:21:32;2.33;;;0.70;;
29576;SDS011;16509;53.862;10.672;2022-09-20T14:26:39;3.85;;;1.15;;
29576;SDS011;16509;53.862;10.672;2022-09-20T14:34:43;4.85;;;1.15;;
29576;SDS011;16509;53.862;10.672;2022-09-20T14:39:54;4.57;;;1.08;;
29576;SDS011;16509;53.862;10.672;2022-09-20T14:42:34;0.47;;;0.47;;
29576;SDS011;16509;53.862;10.672;2022-09-20T14:45:06;2.88;;;0.95;;
29576;SDS011;16509;53.862;10.672;2022-09-20T14:51:09;6.65;;;1.30;;
29576;SDS011;16509;53.862;10.672;2022-09-20T14:53:45;4.80;;;0.93;;
29576;SDS011;16509;53.862;10.672;2022-09-20T14:56:13;1.10;;;0.70;;
29576;SDS011;16509;53.862;10.672;2022-09-20T15:01:53;2.97;;;1.00;;
29576;SDS011;16509;53.862;10.672;2022-09-20T15:04:27;1.92;;;0.60;;
29576;SDS011;16509;53.862;10.672;2022-09-20T15:06:54;2.28;;;0.68;;
29576;SDS011;16509;53.862;10.672;2022-09-20T15:09:24;3.10;;;0.73;;
29576;SDS011;16509;53.862;10.672;2022-09-20T15:14:40;3.25;;;0.82;;
29576;SDS011;16509;53.862;10.672;2022-09-20T15:17:08;1.83;;;0.95;;
29576;SDS011;16509;53.862;10.672;2022-09-20T15:19:38;3.10;;;0.52;;
29576;SDS011;16509;53.862;10.672;2022-09-20T15:22:03;2.60;;;0.70;;
29576;SDS011;16509;53.862;10.672;2022-09-20T15:24:29;2.47;;;0.70;;
29576;SDS011;16509;53.862;10.672;2022-09-20T15:26:54;5.18;;;1.15;;
29576;SDS011;16509;53.862;10.672;2022-09-20T15:29:20;2.97;;;1.10;;
29576;SDS011;16509;53.862;10.672;2022-09-20T15:31:46;1.65;;;0.70;;
29576;SDS011;16509;53.862;10.672;2022-09-20T15:34:12;1.25;;;0.60;;
29576;SDS011;16509;53.862;10.672;2022-09-20T15:36:39;2.00;;;0.73;;
29576;SDS011;16509;53.862;10.672;2022-09-20T15:39:05;1.02;;;0.70;;
29576;SDS011;16509;53.862;10.672;2022-09-20T15:41:31;2.67;;;0.70;;
29576;SDS011;16509;53.862;10.672;2022-09-20T15:43:57;2.13;;;0.65;;
29576;SDS011;16509;53.862;10.672;2022-09-20T15:46:23;4.13;;;1.05;;
29576;SDS011;16509;53.862;10.672;2022-09-20T15:48:51;0.93;;;0.70;;
29576;SDS011;16509;53.862;10.672;2022-09-20T15:51:17;4.47;;;0.65;;
29576;SDS011;16509;53.862;10.672;2022-09-20T15:53:52;1.88;;;0.90;;
29576;SDS011;16509;53.862;10.672;2022-09-20T15:56:26;2.78;;;0.73;;
29576;SDS011;16509;53.862;10.672;2022-09-20T15:58:57;1.58;;;0.50;;
29576;SDS011;16509;53.862;10.672;2022-09-20T16:01:34;3.22;;;0.88;;
29576;SDS011;16509;53.862;10.672;2022-09-20T16:04:11;3.20;;;1.15;;
29576;SDS011;16509;53.862;10.672;2022-09-20T16:06:39;3.90;;;1.45;;
29576;SDS011;16509;53.862;10.672;2022-09-20T16:09:06;5.55;;;1.70;;
29576;SDS011;16509;53.862;10.672;2022-09-20T16:11:32;6.72;;;1.60;;
29576;SDS011;16509;53.862;10.672;2022-09-20T16:13:59;4.18;;;1.25;;
29576;SDS011;16509;53.862;10.672;2022-09-20T16:16:25;1.88;;;1.00;;
29576;SDS011;16509;53.862;10.672;2022-09-20T16:18:52;3.50;;;1.02;;
29576;SDS011;16509;53.862;10.672;2022-09-20T16:21:37;5.65;;;1.05;;
29576;SDS011;16509;53.862;10.672;2022-09-20T16:24:04;1.95;;;0.85;;
29576;SDS011;16509;53.862;10.672;2022-09-20T16:26:31;3.92;;;0.85;;
29576;SDS011;16509;53.862;10.672;2022-09-20T16:28:58;3.10;;;0.88;;
29576;SDS011;16509;53.862;10.672;2022-09-20T16:31:27;3.75;;;0.70;;
29576;SDS011;16509;53.862;10.672;2022-09-20T16:34:03;1.20;;;0.90;;
29576;SDS011;16509;53.862;10.672;2022-09-20T16:36:31;2.58;;;0.90;;
29576;SDS011;16509;53.862;10.672;2022-09-20T16:38:57;3.45;;;0.80;;
29576;SDS011;16509;53.862;10.672;2022-09-20T16:41:23;4.15;;;1.30;;
29576;SDS011;16509;53.862;10.672;2022-09-20T16:43:50;2.30;;;0.80;;
29576;SDS011;16509;53.862;10.672;2022-09-20T16:46:18;2.42;;;1.10;;
29576;SDS011;16509;53.862;10.672;2022-09-20T16:48:51;2.22;;;0.75;;
29576;SDS011;16509;53.862;10.672;2022-09-20T16:51:22;2.35;;;0.60;;
29576;SDS011;16509;53.862;10.672;2022-09-20T16:53:53;1.10;;;0.90;;
29576;SDS011;16509;53.862;10.672;2022-09-20T16:56:20;1.38;;;0.82;;
29576;SDS011;16509;53.862;10.672;2022-09-20T16:58:50;1.45;;;0.65;;
29576;SDS011;16509;53.862;10.672;2022-09-20T17:01:16;2.58;;;1.02;;
29576;SDS011;16509;53.862;10.672;2022-09-20T17:03:42;3.75;;;1.17;;
29576;SDS011;16509;53.862;10.672;2022-09-20T17:06:09;1.95;;;0.80;;
29576;SDS011;16509;53.862;10.672;2022-09-20T17:08:35;4.20;;;1.00;;
29576;SDS011;16509;53.862;10.672;2022-09-20T17:11:06;0.52;;;0.52;;
29576;SDS011;16509;53.862;10.672;2022-09-20T17:13:34;2.17;;;1.33;;
29576;SDS011;16509;53.862;10.672;2022-09-20T17:16:04;4.40;;;1.52;;
29576;SDS011;16509;53.862;10.672;2022-09-20T17:18:35;2.35;;;1.30;;
29576;SDS011;16509;53.862;10.672;2022-09-20T17:21:05;2.47;;;1.73;;
29576;SDS011;16509;53.862;10.672;2022-09-20T17:23:31;3.60;;;1.75;;
29576;SDS011;16509;53.862;10.672;2022-09-20T17:26:01;5.20;;;2.47;;
29576;SDS011;16509;53.862;10.672;2022-09-20T17:28:38;5.63;;;1.85;;
29576;SDS011;16509;53.862;10.672;2022-09-20T17:31:07;5.20;;;2.00;;
29576;SDS011;16509;53.862;10.672;2022-09-20T17:33:35;3.72;;;1.45;;
29576;SDS011;16509;53.862;10.672;2022-09-20T17:36:02;3.20;;;1.77;;
29576;SDS011;16509;53.862;10.672;2022-09-20T17:38:29;5.97;;;1.50;;
29576;SDS011;16509;53.862;10.672;2022-09-20T17:41:19;5.93;;;1.83;;
29576;SDS011;16509;53.862;10.672;2022-09-20T17:43:45;3.00;;;1.77;;
29576;SDS011;16509;53.862;10.672;2022-09-20T17:46:15;6.43;;;2.22;;
29576;SDS011;16509;53.862;10.672;2022-09-20T17:49:02;6.45;;;2.22;;
29576;SDS011;16509;53.862;10.672;2022-09-20T17:51:38;2.35;;;1.52;;
29576;SDS011;16509;53.862;10.672;2022-09-20T17:54:04;3.50;;;1.55;;
29576;SDS011;16509;53.862;10.672;2022-09-20T17:56:31;3.78;;;1.88;;
29576;SDS011;16509;53.862;10.672;2022-09-20T17:58:57;4.65;;;2.00;;
29576;SDS011;16509;53.862;10.672;2022-09-20T18:01:25;5.68;;;2.22;;
29576;SDS011;16509;53.862;10.672;2022-09-20T18:03:52;5.75;;;2.20;;
29576;SDS011;16509;53.862;10.672;2022-09-20T18:06:30;4.60;;;2.28;;
29576;SDS011;16509;53.862;10.672;2022-09-20T18:09:01;3.97;;;2.00;;
29576;SDS011;16509;53.862;10.672;2022-09-20T18:11:30;3.83;;;2.15;;
29576;SDS011;16509;53.862;10.672;2022-09-20T18:14:08;4.57;;;2.15;;
29576;SDS011;16509;53.862;10.672;2022-09-20T18:16:40;5.93;;;2.20;;
29576;SDS011;16509;53.862;10.672;2022-09-20T18:19:07;3.75;;;1.92;;
29576;SDS011;16509;53.862;10.672;2022-09-20T18:21:35;3.45;;;1.73;;
29576;SDS011;16509;53.862;10.672;2022-09-20T18:24:09;2.22;;;1.42;;
29576;SDS011;16509;53.862;10.672;2022-09-20T18:26:42;3.10;;;1.60;;
29576;SDS011;16509;53.862;10.672;2022-09-20T18:29:18;5.32;;;1.20;;
29576;SDS011;16509;53.862;10.672;2022-09-20T18:31:48;4.75;;;1.30;;
29576;SDS011;16509;53.862;10.672;2022-09-20T18:34:25;2.00;;;1.30;;
29576;SDS011;16509;53.862;10.672;2022-09-20T18:36:55;2.17;;;1.10;;
29576;SDS011;16509;53.862;10.672;2022-09-20T18:39:22;2.88;;;1.25;;
29576;SDS011;16509;53.862;10.672;2022-09-20T18:41:49;2.08;;;1.52;;
29576;SDS011;16509;53.862;10.672;2022-09-20T18:44:15;6.45;;;1.63;;
29576;SDS011;16509;53.862;10.672;2022-09-20T18:46:42;2.03;;;1.42;;
29576;SDS011;16509;53.862;10.672;2022-09-20T18:49:09;7.20;;;2.15;;
29576;SDS011;16509;53.862;10.672;2022-09-20T18:51:38;3.72;;;1.70;;
29576;SDS011;16509;53.862;10.672;2022-09-20T18:54:04;3.15;;;1.63;;
29576;SDS011;16509;53.862;10.672;2022-09-20T18:56:30;5.45;;;1.92;;
29576;SDS011;16509;53.862;10.672;2022-09-20T18:58:58;4.22;;;1.92;;
29576;SDS011;16509;53.862;10.672;2022-09-20T19:26:19;10.60;;;3.97;;
29576;SDS011;16509;53.862;10.672;2022-09-20T19:28:52;11.65;;;4.68;;
29576;SDS011;16509;53.862;10.672;2022-09-20T19:31:24;8.23;;;3.95;;
29576;SDS011;16509;53.862;10.672;2022-09-20T19:33:56;12.82;;;4.75;;
29576;SDS011;16509;53.862;10.672;2022-09-20T19:36:24;8.25;;;3.90;;
29576;SDS011;16509;53.862;10.672;2022-09-20T19:53:14;8.27;;;3.80;;
29576;SDS011;16509;53.862;10.672;2022-09-20T19:56:04;11.07;;;3.75;;
29576;SDS011;16509;53.862;10.672;2022-09-20T19:58:45;11.38;;;4.28;;
29576;SDS011;16509;53.862;10.672;2022-09-20T20:01:11;11.63;;;4.60;;
29576;SDS011;16509;53.862;10.672;2022-09-20T20:03:37;17.08;;;4.80;;
29576;SDS011;16509;53.862;10.672;2022-09-20T20:06:16;12.73;;;5.22;;
29576;SDS011;16509;53.862;10.672;2022-09-20T20:08:52;12.50;;;4.38;;
29576;SDS011;16509;53.862;10.672;2022-09-20T20:11:24;13.23;;;4.45;;
29576;SDS011;16509;53.862;10.672;2022-09-20T20:14:10;8.88;;;4.18;;
29576;SDS011;16509;53.862;10.672;2022-09-20T20:19:46;9.40;;;4.50;;
29576;SDS011;16509;53.862;10.672;2022-09-20T20:24:50;12.68;;;5.10;;
29576;SDS011;16509;53.862;10.672;2022-09-20T20:27:17;12.10;;;4.97;;
29576;SDS011;16509;53.862;10.672;2022-09-20T20:29:44;10.77;;;5.00;;
29576;SDS011;16509;53.862;10.672;2022-09-20T20:32:10;7.88;;;4.43;;
29576;SDS011;16509;53.862;10.672;2022-09-20T20:34:36;8.10;;;4.18;;
29576;SDS011;16509;53.862;10.672;2022-09-20T20:37:05;10.02;;;4.55;;
29576;SDS011;16509;53.862;10.672;2022-09-20T20:39:31;9.80;;;4.32;;
29576;SDS011;16509;53.862;10.672;2022-09-20T20:41:57;13.57;;;4.57;;
29576;SDS011;16509;53.862;10.672;2022-09-20T20:44:26;9.32;;;4.50;;
29576;SDS011;16509;53.862;10.672;2022-09-20T20:46:52;8.38;;;4.47;;
29576;SDS011;16509;53.862;10.672;2022-09-20T20:49:17;9.85;;;4.13;;
29576;SDS011;16509;53.862;10.672;2022-09-20T20:51:43;11.82;;;4.10;;
29576;SDS011;16509;53.862;10.672;2022-09-20T20:54:09;9.75;;;4.38;;
29576;SDS011;16509;53.862;10.672;2022-09-20T20:56:34;11.93;;;4.65;;
29576;SDS011;16509;53.862;10.672;2022-09-20T20:59:02;7.75;;;4.07;;
29576;SDS011;16509;53.862;10.672;2022-09-20T21:01:28;6.10;;;3.67;;
29576;SDS011;16509;53.862;10.672;2022-09-20T21:03:56;11.30;;;4.00;;
29576;SDS011;16509;53.862;10.672;2022-09-20T21:06:23;7.97;;;4.18;;
29576;SDS011;16509;53.862;10.672;2022-09-20T21:08:51;5.95;;;3.33;;
29576;SDS011;16509;53.862;10.672;2022-09-20T21:11:19;6.55;;;3.83;;
29576;SDS011;16509;53.862;10.672;2022-09-20T21:13:50;8.90;;;4.05;;
29576;SDS011;16509;53.862;10.672;2022-09-20T21:16:19;10.63;;;5.82;;
29576;SDS011;16509;53.862;10.672;2022-09-20T21:18:47;11.23;;;5.97;;
29576;SDS011;16509;53.862;10.672;2022-09-20T21:23:50;15.32;;;7.13;;
29576;SDS011;16509;53.862;10.672;2022-09-20T21:26:21;18.25;;;8.32;;
29576;SDS011;16509;53.862;10.672;2022-09-20T21:28:50;16.60;;;7.05;;